sensor_id;sensor_type;location;lat;lon;timestamp;P1;durP1;ratioP1;P2;durP2;ratioP2
16352;SDS011;8286;51.274;9.542;2023-12-22T00:00:36;10.10;;;2.93;;
16352;SDS011;8286;51.274;9.542;2023-12-22T00:03:03;12.07;;;2.60;;
16352;SDS011;8286;51.274;9.542;2023-12-22T00:05:30;13.70;;;2.90;;
16352;SDS011;8286;51.274;9.542;2023-12-22T00:07:57;10.37;;;2.83;;
16352;SDS011;8286;51.274;9.542;2023-12-22T00:10:24;13.90;;;2.57;;
16352;SDS011;8286;51.274;9.542;2023-12-22T00:12:50;17.90;;;2.53;;
16352;SDS011;8286;51.274;9.542;2023-12-22T00:15:17;13.53;;;2.90;;
16352;SDS011;8286;51.274;9.542;2023-12-22T00:17:43;13.00;;;3.03;;
16352;SDS011;8286;51.274;9.542;2023-12-22T00:20:10;9.63;;;2.27;;
16352;SDS011;8286;51.274;9.542;2023-12-22T00:22:38;10.43;;;2.27;;
16352;SDS011;8286;51.274;9.542;2023-12-22T00:25:06;9.67;;;2.40;;
16352;SDS011;8286;51.274;9.542;2023-12-22T00:27:34;18.00;;;4.77;;
16352;SDS011;8286;51.274;9.542;2023-12-22T00:30:01;7.57;;;2.63;;
16352;SDS011;8286;51.274;9.542;2023-12-22T00:32:27;13.00;;;3.93;;
16352;SDS011;8286;51.274;9.542;2023-12-22T00:34:54;14.17;;;2.67;;
16352;SDS011;8286;51.274;9.542;2023-12-22T00:37:21;11.00;;;2.43;;
16352;SDS011;8286;51.274;9.542;2023-12-22T00:39:48;12.10;;;3.27;;
16352;SDS011;8286;51.274;9.542;2023-12-22T00:42:16;12.13;;;2.30;;
16352;SDS011;8286;51.274;9.542;2023-12-22T00:44:42;5.90;;;1.90;;
16352;SDS011;8286;51.274;9.542;2023-12-22T00:47:08;5.60;;;1.90;;
16352;SDS011;8286;51.274;9.542;2023-12-22T00:49:35;5.93;;;1.93;;
16352;SDS011;8286;51.274;9.542;2023-12-22T00:52:01;12.87;;;2.13;;
16352;SDS011;8286;51.274;9.542;2023-12-22T00:54:28;11.77;;;2.37;;
16352;SDS011;8286;51.274;9.542;2023-12-22T00:56:56;9.77;;;2.67;;
16352;SDS011;8286;51.274;9.542;2023-12-22T00:59:24;11.37;;;1.63;;
16352;SDS011;8286;51.274;9.542;2023-12-22T01:01:51;8.10;;;2.20;;
16352;SDS011;8286;51.274;9.542;2023-12-22T01:04:17;7.97;;;1.73;;
16352;SDS011;8286;51.274;9.542;2023-12-22T01:06:44;9.23;;;2.40;;
16352;SDS011;8286;51.274;9.542;2023-12-22T01:09:10;15.53;;;2.20;;
16352;SDS011;8286;51.274;9.542;2023-12-22T01:11:37;12.20;;;2.13;;
16352;SDS011;8286;51.274;9.542;2023-12-22T01:14:03;8.57;;;2.10;;
16352;SDS011;8286;51.274;9.542;2023-12-22T01:16:33;9.17;;;2.03;;
16352;SDS011;8286;51.274;9.542;2023-12-22T01:18:59;10.03;;;2.10;;
16352;SDS011;8286;51.274;9.542;2023-12-22T01:21:26;11.63;;;2.03;;
16352;SDS011;8286;51.274;9.542;2023-12-22T01:23:52;5.13;;;2.80;;
16352;SDS011;8286;51.274;9.542;2023-12-22T01:26:19;6.07;;;2.47;;
16352;SDS011;8286;51.274;9.542;2023-12-22T01:28:45;13.57;;;2.70;;
16352;SDS011;8286;51.274;9.542;2023-12-22T01:31:12;12.57;;;2.20;;
16352;SDS011;8286;51.274;9.542;2023-12-22T01:33:40;14.23;;;2.77;;
16352;SDS011;8286;51.274;9.542;2023-12-22T01:36:06;7.77;;;2.10;;
16352;SDS011;8286;51.274;9.542;2023-12-22T01:38:33;7.07;;;2.40;;
16352;SDS011;8286;51.274;9.542;2023-12-22T01:40:59;10.10;;;2.80;;
16352;SDS011;8286;51.274;9.542;2023-12-22T01:43:26;10.80;;;1.93;;
16352;SDS011;8286;51.274;9.542;2023-12-22T01:45:55;12.70;;;2.70;;
16352;SDS011;8286;51.274;9.542;2023-12-22T01:48:22;11.60;;;2.03;;
16352;SDS011;8286;51.274;9.542;2023-12-22T01:50:50;5.77;;;1.97;;
16352;SDS011;8286;51.274;9.542;2023-12-22T01:53:17;9.03;;;1.83;;
16352;SDS011;8286;51.274;9.542;2023-12-22T01:55:43;5.93;;;2.10;;
16352;SDS011;8286;51.274;9.542;2023-12-22T01:58:09;9.73;;;1.63;;
16352;SDS011;8286;51.274;9.542;2023-12-22T02:00:36;7.80;;;2.43;;
16352;SDS011;8286;51.274;9.542;2023-12-22T02:03:03;10.13;;;1.97;;
16352;SDS011;8286;51.274;9.542;2023-12-22T02:05:29;9.17;;;1.70;;
16352;SDS011;8286;51.274;9.542;2023-12-22T02:07:57;11.57;;;2.53;;
16352;SDS011;8286;51.274;9.542;2023-12-22T02:10:24;12.10;;;2.10;;
16352;SDS011;8286;51.274;9.542;2023-12-22T02:12:50;12.60;;;2.17;;
16352;SDS011;8286;51.274;9.542;2023-12-22T02:15:17;10.17;;;2.90;;
16352;SDS011;8286;51.274;9.542;2023-12-22T02:17:45;8.87;;;1.90;;
16352;SDS011;8286;51.274;9.542;2023-12-22T02:20:15;12.33;;;2.33;;
16352;SDS011;8286;51.274;9.542;2023-12-22T02:22:42;6.70;;;2.00;;
16352;SDS011;8286;51.274;9.542;2023-12-22T02:25:09;7.70;;;1.90;;
16352;SDS011;8286;51.274;9.542;2023-12-22T02:27:38;6.37;;;1.80;;
16352;SDS011;8286;51.274;9.542;2023-12-22T02:30:07;10.97;;;2.73;;
16352;SDS011;8286;51.274;9.542;2023-12-22T02:32:36;11.70;;;2.13;;
16352;SDS011;8286;51.274;9.542;2023-12-22T02:35:07;7.70;;;2.60;;
16352;SDS011;8286;51.274;9.542;2023-12-22T02:37:36;10.17;;;2.33;;
16352;SDS011;8286;51.274;9.542;2023-12-22T02:40:05;15.47;;;2.37;;
16352;SDS011;8286;51.274;9.542;2023-12-22T02:42:33;12.90;;;2.50;;
16352;SDS011;8286;51.274;9.542;2023-12-22T02:45:00;13.77;;;2.70;;
16352;SDS011;8286;51.274;9.542;2023-12-22T02:47:27;13.67;;;2.43;;
16352;SDS011;8286;51.274;9.542;2023-12-22T02:49:54;11.33;;;2.00;;
16352;SDS011;8286;51.274;9.542;2023-12-22T02:52:20;10.27;;;2.30;;
16352;SDS011;8286;51.274;9.542;2023-12-22T02:54:46;6.90;;;2.27;;
16352;SDS011;8286;51.274;9.542;2023-12-22T02:57:14;9.70;;;2.33;;
16352;SDS011;8286;51.274;9.542;2023-12-22T02:59:41;7.70;;;2.47;;
16352;SDS011;8286;51.274;9.542;2023-12-22T03:02:07;7.93;;;2.30;;
16352;SDS011;8286;51.274;9.542;2023-12-22T03:04:34;9.47;;;2.57;;
16352;SDS011;8286;51.274;9.542;2023-12-22T03:07:00;8.70;;;1.97;;
16352;SDS011;8286;51.274;9.542;2023-12-22T03:09:26;5.87;;;1.67;;
16352;SDS011;8286;51.274;9.542;2023-12-22T03:11:53;8.93;;;1.90;;
16352;SDS011;8286;51.274;9.542;2023-12-22T03:14:22;16.23;;;2.23;;
16352;SDS011;8286;51.274;9.542;2023-12-22T03:16:49;15.40;;;2.03;;
16352;SDS011;8286;51.274;9.542;2023-12-22T03:19:15;6.80;;;1.80;;
16352;SDS011;8286;51.274;9.542;2023-12-22T03:21:42;14.40;;;1.80;;
16352;SDS011;8286;51.274;9.542;2023-12-22T03:24:08;7.50;;;1.73;;
16352;SDS011;8286;51.274;9.542;2023-12-22T03:26:35;8.63;;;1.67;;
16352;SDS011;8286;51.274;9.542;2023-12-22T03:29:01;4.20;;;1.80;;
16352;SDS011;8286;51.274;9.542;2023-12-22T03:31:29;11.47;;;2.23;;
16352;SDS011;8286;51.274;9.542;2023-12-22T03:33:55;6.97;;;2.20;;
16352;SDS011;8286;51.274;9.542;2023-12-22T03:36:22;8.50;;;1.90;;
16352;SDS011;8286;51.274;9.542;2023-12-22T03:38:48;8.90;;;1.93;;
16352;SDS011;8286;51.274;9.542;2023-12-22T03:41:15;13.90;;;1.87;;
16352;SDS011;8286;51.274;9.542;2023-12-22T03:43:41;2.97;;;1.40;;
16352;SDS011;8286;51.274;9.542;2023-12-22T03:46:08;4.63;;;1.70;;
16352;SDS011;8286;51.274;9.542;2023-12-22T03:48:36;11.33;;;1.80;;
16352;SDS011;8286;51.274;9.542;2023-12-22T03:51:02;9.47;;;1.90;;
16352;SDS011;8286;51.274;9.542;2023-12-22T03:53:29;5.90;;;1.80;;
16352;SDS011;8286;51.274;9.542;2023-12-22T03:55:56;11.83;;;2.83;;
16352;SDS011;8286;51.274;9.542;2023-12-22T03:58:22;8.63;;;1.87;;
16352;SDS011;8286;51.274;9.542;2023-12-22T04:00:49;11.03;;;2.10;;
16352;SDS011;8286;51.274;9.542;2023-12-22T04:03:16;7.13;;;2.07;;
16352;SDS011;8286;51.274;9.542;2023-12-22T04:05:43;13.27;;;2.10;;
16352;SDS011;8286;51.274;9.542;2023-12-22T04:08:10;15.10;;;2.60;;
16352;SDS011;8286;51.274;9.542;2023-12-22T04:10:36;13.83;;;1.87;;
16352;SDS011;8286;51.274;9.542;2023-12-22T04:13:03;15.63;;;2.83;;
16352;SDS011;8286;51.274;9.542;2023-12-22T04:15:29;15.63;;;2.30;;
16352;SDS011;8286;51.274;9.542;2023-12-22T04:17:56;7.00;;;2.90;;
16352;SDS011;8286;51.274;9.542;2023-12-22T04:20:22;14.13;;;2.37;;
16352;SDS011;8286;51.274;9.542;2023-12-22T04:22:50;7.20;;;1.80;;
16352;SDS011;8286;51.274;9.542;2023-12-22T04:25:16;13.13;;;2.43;;
16352;SDS011;8286;51.274;9.542;2023-12-22T04:27:43;7.70;;;2.60;;
16352;SDS011;8286;51.274;9.542;2023-12-22T04:30:11;14.40;;;1.90;;
16352;SDS011;8286;51.274;9.542;2023-12-22T04:32:38;12.40;;;2.07;;
16352;SDS011;8286;51.274;9.542;2023-12-22T04:35:04;9.23;;;1.90;;
16352;SDS011;8286;51.274;9.542;2023-12-22T04:37:31;7.17;;;2.13;;
16352;SDS011;8286;51.274;9.542;2023-12-22T04:39:59;8.07;;;1.70;;
16352;SDS011;8286;51.274;9.542;2023-12-22T04:42:25;4.73;;;1.53;;
16352;SDS011;8286;51.274;9.542;2023-12-22T04:44:53;6.33;;;2.10;;
16352;SDS011;8286;51.274;9.542;2023-12-22T04:47:20;9.47;;;2.13;;
16352;SDS011;8286;51.274;9.542;2023-12-22T04:49:46;9.67;;;1.57;;
16352;SDS011;8286;51.274;9.542;2023-12-22T04:52:13;8.40;;;1.90;;
16352;SDS011;8286;51.274;9.542;2023-12-22T04:54:39;5.30;;;1.47;;
16352;SDS011;8286;51.274;9.542;2023-12-22T04:57:07;4.27;;;1.17;;
16352;SDS011;8286;51.274;9.542;2023-12-22T04:59:33;5.57;;;1.00;;
16352;SDS011;8286;51.274;9.542;2023-12-22T05:02:00;6.77;;;2.17;;
16352;SDS011;8286;51.274;9.542;2023-12-22T05:04:26;2.00;;;1.17;;
16352;SDS011;8286;51.274;9.542;2023-12-22T05:06:53;6.10;;;1.30;;
16352;SDS011;8286;51.274;9.542;2023-12-22T05:09:20;2.27;;;0.93;;
16352;SDS011;8286;51.274;9.542;2023-12-22T05:11:49;3.10;;;1.20;;
16352;SDS011;8286;51.274;9.542;2023-12-22T05:14:16;5.73;;;1.33;;
16352;SDS011;8286;51.274;9.542;2023-12-22T05:16:43;2.87;;;1.23;;
16352;SDS011;8286;51.274;9.542;2023-12-22T05:19:09;4.13;;;0.80;;
16352;SDS011;8286;51.274;9.542;2023-12-22T05:21:36;2.73;;;1.13;;
16352;SDS011;8286;51.274;9.542;2023-12-22T05:24:02;6.23;;;1.07;;
16352;SDS011;8286;51.274;9.542;2023-12-22T05:26:30;5.53;;;1.13;;
16352;SDS011;8286;51.274;9.542;2023-12-22T05:28:57;3.43;;;0.93;;
16352;SDS011;8286;51.274;9.542;2023-12-22T05:31:24;1.80;;;0.83;;
16352;SDS011;8286;51.274;9.542;2023-12-22T05:33:52;3.03;;;0.70;;
16352;SDS011;8286;51.274;9.542;2023-12-22T05:36:19;1.50;;;0.73;;
16352;SDS011;8286;51.274;9.542;2023-12-22T05:38:46;4.93;;;0.80;;
16352;SDS011;8286;51.274;9.542;2023-12-22T05:41:13;5.37;;;1.10;;
16352;SDS011;8286;51.274;9.542;2023-12-22T05:43:39;3.80;;;1.03;;
16352;SDS011;8286;51.274;9.542;2023-12-22T05:46:05;3.70;;;1.07;;
16352;SDS011;8286;51.274;9.542;2023-12-22T05:48:34;7.33;;;1.63;;
16352;SDS011;8286;51.274;9.542;2023-12-22T05:51:01;1.53;;;1.20;;
16352;SDS011;8286;51.274;9.542;2023-12-22T05:53:32;3.43;;;1.10;;
16352;SDS011;8286;51.274;9.542;2023-12-22T05:55:58;3.87;;;1.13;;
16352;SDS011;8286;51.274;9.542;2023-12-22T05:58:25;3.00;;;0.87;;
16352;SDS011;8286;51.274;9.542;2023-12-22T06:00:51;3.97;;;1.37;;
16352;SDS011;8286;51.274;9.542;2023-12-22T06:03:18;1.40;;;1.30;;
16352;SDS011;8286;51.274;9.542;2023-12-22T06:05:46;3.50;;;1.00;;
16352;SDS011;8286;51.274;9.542;2023-12-22T06:08:12;2.93;;;1.40;;
16352;SDS011;8286;51.274;9.542;2023-12-22T06:10:38;2.30;;;0.90;;
16352;SDS011;8286;51.274;9.542;2023-12-22T06:13:05;3.03;;;1.00;;
16352;SDS011;8286;51.274;9.542;2023-12-22T06:15:32;0.73;;;0.60;;
16352;SDS011;8286;51.274;9.542;2023-12-22T06:17:58;4.03;;;1.10;;
16352;SDS011;8286;51.274;9.542;2023-12-22T06:20:25;2.07;;;1.10;;
16352;SDS011;8286;51.274;9.542;2023-12-22T06:22:53;2.20;;;1.17;;
16352;SDS011;8286;51.274;9.542;2023-12-22T06:25:19;3.37;;;1.00;;
16352;SDS011;8286;51.274;9.542;2023-12-22T06:27:46;1.10;;;0.93;;
16352;SDS011;8286;51.274;9.542;2023-12-22T06:30:13;5.80;;;1.70;;
16352;SDS011;8286;51.274;9.542;2023-12-22T06:32:39;4.57;;;1.60;;
16352;SDS011;8286;51.274;9.542;2023-12-22T06:35:06;7.00;;;1.07;;
16352;SDS011;8286;51.274;9.542;2023-12-22T06:37:34;7.33;;;1.20;;
16352;SDS011;8286;51.274;9.542;2023-12-22T06:40:02;8.57;;;1.40;;
16352;SDS011;8286;51.274;9.542;2023-12-22T06:42:29;3.00;;;1.10;;
16352;SDS011;8286;51.274;9.542;2023-12-22T06:44:56;7.07;;;1.37;;
16352;SDS011;8286;51.274;9.542;2023-12-22T06:47:23;7.27;;;0.90;;
16352;SDS011;8286;51.274;9.542;2023-12-22T06:49:51;5.37;;;1.53;;
16352;SDS011;8286;51.274;9.542;2023-12-22T06:52:18;3.30;;;1.20;;
16352;SDS011;8286;51.274;9.542;2023-12-22T06:54:45;5.73;;;1.47;;
16352;SDS011;8286;51.274;9.542;2023-12-22T06:57:13;5.20;;;1.40;;
16352;SDS011;8286;51.274;9.542;2023-12-22T06:59:39;8.60;;;1.50;;
16352;SDS011;8286;51.274;9.542;2023-12-22T07:02:06;3.73;;;1.40;;
16352;SDS011;8286;51.274;9.542;2023-12-22T07:07:31;7.13;;;1.93;;
16352;SDS011;8286;51.274;9.542;2023-12-22T07:09:57;4.63;;;1.47;;
16352;SDS011;8286;51.274;9.542;2023-12-22T07:12:25;4.00;;;1.50;;
16352;SDS011;8286;51.274;9.542;2023-12-22T07:14:51;2.60;;;1.20;;
16352;SDS011;8286;51.274;9.542;2023-12-22T07:17:18;7.77;;;1.67;;
16352;SDS011;8286;51.274;9.542;2023-12-22T07:19:44;7.37;;;1.57;;
16352;SDS011;8286;51.274;9.542;2023-12-22T07:22:11;3.53;;;1.60;;
16352;SDS011;8286;51.274;9.542;2023-12-22T07:24:37;6.07;;;1.50;;
16352;SDS011;8286;51.274;9.542;2023-12-22T07:27:04;7.00;;;1.93;;
16352;SDS011;8286;51.274;9.542;2023-12-22T07:29:32;4.10;;;1.70;;
16352;SDS011;8286;51.274;9.542;2023-12-22T07:31:58;2.23;;;1.23;;
16352;SDS011;8286;51.274;9.542;2023-12-22T07:34:25;7.07;;;1.33;;
16352;SDS011;8286;51.274;9.542;2023-12-22T07:36:51;6.97;;;1.20;;
16352;SDS011;8286;51.274;9.542;2023-12-22T07:39:18;4.13;;;2.37;;
16352;SDS011;8286;51.274;9.542;2023-12-22T07:41:44;5.07;;;1.70;;
16352;SDS011;8286;51.274;9.542;2023-12-22T07:44:11;4.60;;;1.40;;
16352;SDS011;8286;51.274;9.542;2023-12-22T07:46:39;13.03;;;1.60;;
16352;SDS011;8286;51.274;9.542;2023-12-22T07:49:05;7.97;;;1.30;;
16352;SDS011;8286;51.274;9.542;2023-12-22T07:51:32;4.60;;;1.80;;
16352;SDS011;8286;51.274;9.542;2023-12-22T07:53:58;8.40;;;1.67;;
16352;SDS011;8286;51.274;9.542;2023-12-22T07:56:25;7.30;;;1.50;;
16352;SDS011;8286;51.274;9.542;2023-12-22T07:58:51;6.73;;;1.23;;
16352;SDS011;8286;51.274;9.542;2023-12-22T08:01:19;8.13;;;1.70;;
16352;SDS011;8286;51.274;9.542;2023-12-22T08:03:47;3.40;;;1.43;;
16352;SDS011;8286;51.274;9.542;2023-12-22T08:06:13;7.03;;;1.90;;
16352;SDS011;8286;51.274;9.542;2023-12-22T08:08:40;11.00;;;2.20;;
16352;SDS011;8286;51.274;9.542;2023-12-22T08:11:06;9.60;;;1.33;;
16352;SDS011;8286;51.274;9.542;2023-12-22T08:13:33;8.70;;;1.67;;
16352;SDS011;8286;51.274;9.542;2023-12-22T08:16:00;12.20;;;2.47;;
16352;SDS011;8286;51.274;9.542;2023-12-22T08:18:26;6.70;;;1.40;;
16352;SDS011;8286;51.274;9.542;2023-12-22T08:20:54;5.77;;;1.30;;
16352;SDS011;8286;51.274;9.542;2023-12-22T08:23:20;8.47;;;1.40;;
16352;SDS011;8286;51.274;9.542;2023-12-22T08:25:47;9.63;;;2.10;;
16352;SDS011;8286;51.274;9.542;2023-12-22T08:28:14;5.33;;;1.60;;
16352;SDS011;8286;51.274;9.542;2023-12-22T08:30:41;3.13;;;1.97;;
16352;SDS011;8286;51.274;9.542;2023-12-22T08:33:07;2.63;;;1.40;;
16352;SDS011;8286;51.274;9.542;2023-12-22T08:35:35;8.67;;;1.50;;
16352;SDS011;8286;51.274;9.542;2023-12-22T08:38:03;9.77;;;2.00;;
16352;SDS011;8286;51.274;9.542;2023-12-22T08:40:29;11.47;;;1.70;;
16352;SDS011;8286;51.274;9.542;2023-12-22T08:42:56;12.23;;;3.63;;
16352;SDS011;8286;51.274;9.542;2023-12-22T08:45:24;6.57;;;1.53;;
16352;SDS011;8286;51.274;9.542;2023-12-22T08:47:53;3.43;;;1.60;;
16352;SDS011;8286;51.274;9.542;2023-12-22T08:50:20;2.87;;;1.27;;
16352;SDS011;8286;51.274;9.542;2023-12-22T08:52:46;10.13;;;1.70;;
16352;SDS011;8286;51.274;9.542;2023-12-22T08:55:14;4.93;;;1.80;;
16352;SDS011;8286;51.274;9.542;2023-12-22T08:57:41;7.07;;;1.93;;
16352;SDS011;8286;51.274;9.542;2023-12-22T09:00:07;6.07;;;1.70;;
16352;SDS011;8286;51.274;9.542;2023-12-22T09:02:35;6.80;;;2.23;;
16352;SDS011;8286;51.274;9.542;2023-12-22T09:05:01;6.90;;;1.40;;
16352;SDS011;8286;51.274;9.542;2023-12-22T09:07:28;7.93;;;1.30;;
16352;SDS011;8286;51.274;9.542;2023-12-22T09:09:54;2.90;;;1.47;;
16352;SDS011;8286;51.274;9.542;2023-12-22T09:12:22;5.10;;;1.50;;
16352;SDS011;8286;51.274;9.542;2023-12-22T09:14:49;3.53;;;1.60;;
16352;SDS011;8286;51.274;9.542;2023-12-22T09:17:16;3.33;;;1.67;;
16352;SDS011;8286;51.274;9.542;2023-12-22T09:19:42;5.37;;;1.57;;
16352;SDS011;8286;51.274;9.542;2023-12-22T09:22:08;4.37;;;1.10;;
16352;SDS011;8286;51.274;9.542;2023-12-22T09:24:35;3.70;;;1.63;;
16352;SDS011;8286;51.274;9.542;2023-12-22T09:27:01;3.97;;;1.50;;
16352;SDS011;8286;51.274;9.542;2023-12-22T09:29:30;5.07;;;1.10;;
16352;SDS011;8286;51.274;9.542;2023-12-22T09:31:58;1.97;;;1.00;;
16352;SDS011;8286;51.274;9.542;2023-12-22T09:34:25;2.07;;;1.20;;
16352;SDS011;8286;51.274;9.542;2023-12-22T09:36:52;4.60;;;1.30;;
16352;SDS011;8286;51.274;9.542;2023-12-22T09:39:19;6.27;;;1.20;;
16352;SDS011;8286;51.274;9.542;2023-12-22T09:41:47;3.67;;;1.10;;
16352;SDS011;8286;51.274;9.542;2023-12-22T09:44:15;2.70;;;0.77;;
16352;SDS011;8286;51.274;9.542;2023-12-22T09:46:47;1.43;;;0.70;;
16352;SDS011;8286;51.274;9.542;2023-12-22T09:49:14;1.97;;;0.70;;
16352;SDS011;8286;51.274;9.542;2023-12-22T09:51:40;1.90;;;0.80;;
16352;SDS011;8286;51.274;9.542;2023-12-22T09:54:07;1.17;;;0.60;;
16352;SDS011;8286;51.274;9.542;2023-12-22T09:56:34;4.47;;;0.90;;
16352;SDS011;8286;51.274;9.542;2023-12-22T09:59:02;1.17;;;1.10;;
16352;SDS011;8286;51.274;9.542;2023-12-22T10:01:29;0.63;;;0.60;;
16352;SDS011;8286;51.274;9.542;2023-12-22T10:03:57;3.80;;;0.70;;
16352;SDS011;8286;51.274;9.542;2023-12-22T10:06:24;1.67;;;0.63;;
16352;SDS011;8286;51.274;9.542;2023-12-22T10:08:51;3.40;;;1.37;;
16352;SDS011;8286;51.274;9.542;2023-12-22T10:11:18;2.43;;;1.00;;
16352;SDS011;8286;51.274;9.542;2023-12-22T10:13:46;4.80;;;1.03;;
16352;SDS011;8286;51.274;9.542;2023-12-22T10:16:14;3.43;;;1.50;;
16352;SDS011;8286;51.274;9.542;2023-12-22T10:18:41;3.53;;;1.37;;
16352;SDS011;8286;51.274;9.542;2023-12-22T10:21:09;5.07;;;1.40;;
16352;SDS011;8286;51.274;9.542;2023-12-22T10:23:35;2.03;;;1.00;;
16352;SDS011;8286;51.274;9.542;2023-12-22T10:26:02;5.13;;;0.90;;
16352;SDS011;8286;51.274;9.542;2023-12-22T10:28:29;4.60;;;1.43;;
16352;SDS011;8286;51.274;9.542;2023-12-22T10:30:56;5.53;;;1.53;;
16352;SDS011;8286;51.274;9.542;2023-12-22T10:33:29;9.13;;;2.17;;
16352;SDS011;8286;51.274;9.542;2023-12-22T10:35:56;3.30;;;1.40;;
16352;SDS011;8286;51.274;9.542;2023-12-22T10:38:23;5.40;;;1.60;;
16352;SDS011;8286;51.274;9.542;2023-12-22T10:40:50;4.97;;;2.07;;
16352;SDS011;8286;51.274;9.542;2023-12-22T10:43:16;3.70;;;1.73;;
16352;SDS011;8286;51.274;9.542;2023-12-22T10:45:43;3.83;;;1.97;;
16352;SDS011;8286;51.274;9.542;2023-12-22T10:48:10;5.93;;;1.87;;
16352;SDS011;8286;51.274;9.542;2023-12-22T10:50:36;5.27;;;2.07;;
16352;SDS011;8286;51.274;9.542;2023-12-22T10:53:05;6.47;;;2.47;;
16352;SDS011;8286;51.274;9.542;2023-12-22T10:55:33;5.33;;;1.90;;
16352;SDS011;8286;51.274;9.542;2023-12-22T10:58:01;3.00;;;1.67;;
16352;SDS011;8286;51.274;9.542;2023-12-22T11:00:27;5.90;;;2.63;;
16352;SDS011;8286;51.274;9.542;2023-12-22T11:02:56;2.13;;;1.50;;
16352;SDS011;8286;51.274;9.542;2023-12-22T11:05:25;5.17;;;1.60;;
16352;SDS011;8286;51.274;9.542;2023-12-22T11:07:52;1.80;;;1.10;;
16352;SDS011;8286;51.274;9.542;2023-12-22T11:10:21;3.47;;;0.93;;
16352;SDS011;8286;51.274;9.542;2023-12-22T11:12:49;1.60;;;1.10;;
16352;SDS011;8286;51.274;9.542;2023-12-22T11:15:16;1.43;;;1.10;;
16352;SDS011;8286;51.274;9.542;2023-12-22T11:17:43;1.30;;;1.00;;
16352;SDS011;8286;51.274;9.542;2023-12-22T11:20:11;2.53;;;0.93;;
16352;SDS011;8286;51.274;9.542;2023-12-22T11:22:38;2.60;;;1.10;;
16352;SDS011;8286;51.274;9.542;2023-12-22T11:25:06;3.50;;;1.00;;
16352;SDS011;8286;51.274;9.542;2023-12-22T11:27:34;0.80;;;0.73;;
16352;SDS011;8286;51.274;9.542;2023-12-22T11:30:05;3.70;;;0.83;;
16352;SDS011;8286;51.274;9.542;2023-12-22T11:32:34;1.83;;;0.87;;
16352;SDS011;8286;51.274;9.542;2023-12-22T11:35:00;4.93;;;1.07;;
16352;SDS011;8286;51.274;9.542;2023-12-22T11:37:28;3.47;;;1.17;;
16352;SDS011;8286;51.274;9.542;2023-12-22T11:39:57;1.83;;;0.90;;
16352;SDS011;8286;51.274;9.542;2023-12-22T11:42:25;1.53;;;1.20;;
16352;SDS011;8286;51.274;9.542;2023-12-22T11:44:54;2.73;;;1.50;;
16352;SDS011;8286;51.274;9.542;2023-12-22T11:47:23;7.33;;;1.73;;
16352;SDS011;8286;51.274;9.542;2023-12-22T11:49:50;4.30;;;1.10;;
16352;SDS011;8286;51.274;9.542;2023-12-22T11:52:17;2.37;;;1.53;;
16352;SDS011;8286;51.274;9.542;2023-12-22T11:54:48;2.87;;;1.23;;
16352;SDS011;8286;51.274;9.542;2023-12-22T11:57:29;4.60;;;1.20;;
16352;SDS011;8286;51.274;9.542;2023-12-22T11:59:56;2.20;;;1.03;;
16352;SDS011;8286;51.274;9.542;2023-12-22T12:02:24;2.50;;;1.37;;
16352;SDS011;8286;51.274;9.542;2023-12-22T12:04:52;1.70;;;1.43;;
16352;SDS011;8286;51.274;9.542;2023-12-22T12:07:37;2.43;;;1.27;;
16352;SDS011;8286;51.274;9.542;2023-12-22T12:10:06;1.70;;;1.20;;
16352;SDS011;8286;51.274;9.542;2023-12-22T12:12:33;3.80;;;1.20;;
16352;SDS011;8286;51.274;9.542;2023-12-22T12:15:06;2.73;;;1.10;;
16352;SDS011;8286;51.274;9.542;2023-12-22T12:17:38;2.67;;;1.27;;
16352;SDS011;8286;51.274;9.542;2023-12-22T12:20:06;1.40;;;1.30;;
16352;SDS011;8286;51.274;9.542;2023-12-22T12:22:34;1.20;;;1.10;;
16352;SDS011;8286;51.274;9.542;2023-12-22T12:25:03;2.33;;;1.40;;
16352;SDS011;8286;51.274;9.542;2023-12-22T12:27:31;1.00;;;1.00;;
16352;SDS011;8286;51.274;9.542;2023-12-22T12:30:03;1.10;;;0.80;;
16352;SDS011;8286;51.274;9.542;2023-12-22T12:32:34;2.53;;;0.80;;
16352;SDS011;8286;51.274;9.542;2023-12-22T12:35:02;1.27;;;0.70;;
16352;SDS011;8286;51.274;9.542;2023-12-22T12:37:30;1.17;;;1.00;;
16352;SDS011;8286;51.274;9.542;2023-12-22T12:39:57;3.50;;;1.30;;
16352;SDS011;8286;51.274;9.542;2023-12-22T12:42:25;1.53;;;0.90;;
16352;SDS011;8286;51.274;9.542;2023-12-22T12:44:55;0.73;;;0.60;;
16352;SDS011;8286;51.274;9.542;2023-12-22T12:47:21;1.17;;;1.00;;
16352;SDS011;8286;51.274;9.542;2023-12-22T12:49:56;2.93;;;0.80;;
16352;SDS011;8286;51.274;9.542;2023-12-22T12:52:24;0.80;;;0.80;;
16352;SDS011;8286;51.274;9.542;2023-12-22T12:54:51;0.70;;;0.70;;
16352;SDS011;8286;51.274;9.542;2023-12-22T12:57:17;0.77;;;0.77;;
16352;SDS011;8286;51.274;9.542;2023-12-22T12:59:45;1.03;;;0.90;;
16352;SDS011;8286;51.274;9.542;2023-12-22T13:02:13;0.77;;;0.77;;
16352;SDS011;8286;51.274;9.542;2023-12-22T13:04:39;0.90;;;0.70;;
16352;SDS011;8286;51.274;9.542;2023-12-22T13:07:06;1.70;;;1.47;;
16352;SDS011;8286;51.274;9.542;2023-12-22T13:09:35;0.80;;;0.80;;
16352;SDS011;8286;51.274;9.542;2023-12-22T13:12:03;0.67;;;0.67;;
16352;SDS011;8286;51.274;9.542;2023-12-22T13:14:30;0.63;;;0.63;;
16352;SDS011;8286;51.274;9.542;2023-12-22T13:16:57;0.40;;;0.40;;
16352;SDS011;8286;51.274;9.542;2023-12-22T13:19:24;0.70;;;0.70;;
16352;SDS011;8286;51.274;9.542;2023-12-22T13:21:51;0.77;;;0.77;;
16352;SDS011;8286;51.274;9.542;2023-12-22T13:24:18;0.93;;;0.73;;
16352;SDS011;8286;51.274;9.542;2023-12-22T13:26:46;2.73;;;0.77;;
16352;SDS011;8286;51.274;9.542;2023-12-22T13:29:13;0.83;;;0.83;;
16352;SDS011;8286;51.274;9.542;2023-12-22T13:31:40;1.13;;;0.60;;
16352;SDS011;8286;51.274;9.542;2023-12-22T13:34:11;1.40;;;1.00;;
16352;SDS011;8286;51.274;9.542;2023-12-22T13:36:38;5.20;;;0.90;;
16352;SDS011;8286;51.274;9.542;2023-12-22T13:39:05;3.27;;;1.30;;
16352;SDS011;8286;51.274;9.542;2023-12-22T13:41:32;1.37;;;1.07;;
16352;SDS011;8286;51.274;9.542;2023-12-22T13:44:03;1.23;;;1.07;;
16352;SDS011;8286;51.274;9.542;2023-12-22T13:46:30;1.53;;;1.10;;
16352;SDS011;8286;51.274;9.542;2023-12-22T13:48:58;1.80;;;1.27;;
16352;SDS011;8286;51.274;9.542;2023-12-22T13:51:24;2.50;;;0.90;;
16352;SDS011;8286;51.274;9.542;2023-12-22T13:53:51;1.40;;;0.80;;
16352;SDS011;8286;51.274;9.542;2023-12-22T13:56:17;0.70;;;0.70;;
16352;SDS011;8286;51.274;9.542;2023-12-22T13:58:44;0.90;;;0.90;;
16352;SDS011;8286;51.274;9.542;2023-12-22T14:01:16;1.50;;;0.90;;
16352;SDS011;8286;51.274;9.542;2023-12-22T14:03:43;2.43;;;0.97;;
16352;SDS011;8286;51.274;9.542;2023-12-22T14:06:11;1.17;;;1.00;;
16352;SDS011;8286;51.274;9.542;2023-12-22T14:08:38;2.97;;;1.30;;
16352;SDS011;8286;51.274;9.542;2023-12-22T14:11:05;4.33;;;1.00;;
16352;SDS011;8286;51.274;9.542;2023-12-22T14:13:32;0.97;;;0.90;;
16352;SDS011;8286;51.274;9.542;2023-12-22T14:16:00;4.83;;;1.27;;
16352;SDS011;8286;51.274;9.542;2023-12-22T14:18:28;2.37;;;1.00;;
16352;SDS011;8286;51.274;9.542;2023-12-22T14:20:54;1.10;;;1.10;;
16352;SDS011;8286;51.274;9.542;2023-12-22T14:23:21;1.00;;;1.00;;
16352;SDS011;8286;51.274;9.542;2023-12-22T14:25:48;1.40;;;1.00;;
16352;SDS011;8286;51.274;9.542;2023-12-22T14:28:14;4.93;;;1.10;;
16352;SDS011;8286;51.274;9.542;2023-12-22T14:30:40;1.30;;;1.00;;
16352;SDS011;8286;51.274;9.542;2023-12-22T14:33:07;0.97;;;0.97;;
16352;SDS011;8286;51.274;9.542;2023-12-22T14:35:36;1.30;;;1.23;;
16352;SDS011;8286;51.274;9.542;2023-12-22T14:38:02;1.60;;;1.50;;
16352;SDS011;8286;51.274;9.542;2023-12-22T14:40:29;4.40;;;1.27;;
16352;SDS011;8286;51.274;9.542;2023-12-22T14:42:56;4.10;;;1.57;;
16352;SDS011;8286;51.274;9.542;2023-12-22T14:45:24;1.23;;;1.23;;
16352;SDS011;8286;51.274;9.542;2023-12-22T14:47:50;2.00;;;1.10;;
16352;SDS011;8286;51.274;9.542;2023-12-22T14:50:18;2.17;;;1.50;;
16352;SDS011;8286;51.274;9.542;2023-12-22T14:52:46;2.30;;;1.40;;
16352;SDS011;8286;51.274;9.542;2023-12-22T14:55:13;1.63;;;1.13;;
16352;SDS011;8286;51.274;9.542;2023-12-22T14:57:39;2.60;;;1.40;;
16352;SDS011;8286;51.274;9.542;2023-12-22T15:00:06;3.43;;;1.70;;